createdAt,value
2022-12-05T00:01:41.199Z,19.48
2022-12-05T00:04:09.348Z,17.88
2022-12-05T00:06:36.753Z,16.85
2022-12-05T00:09:04.365Z,18.02
2022-12-05T00:11:31.923Z,18.48
2022-12-05T00:13:59.516Z,17.20
2022-12-05T00:16:27.540Z,14.85
2022-12-05T00:18:54.249Z,16.65
2022-12-05T00:21:22.172Z,14.38
2022-12-05T00:23:49.236Z,16.63
2022-12-05T00:26:16.038Z,16.08
2022-12-05T00:28:43.112Z,15.20
2022-12-05T00:31:11.524Z,16.45
2022-12-05T00:33:38.484Z,16.13
2022-12-05T00:36:06.255Z,13.32
2022-12-05T00:38:32.871Z,14.82
2022-12-05T00:41:09.775Z,14.38
2022-12-05T00:43:36.676Z,17.35
2022-12-05T00:46:07.501Z,15.30
2022-12-05T00:48:34.600Z,16.58
2022-12-05T00:51:08.468Z,14.85
2022-12-05T00:53:35.575Z,16.17
2022-12-05T00:56:03.734Z,14.95
2022-12-05T00:58:30.698Z,14.98
2022-12-05T01:00:57.311Z,15.88
2022-12-05T01:03:24.219Z,15.00
2022-12-05T01:05:51.952Z,15.57
2022-12-05T01:08:18.595Z,12.75
2022-12-05T01:10:52.397Z,14.77
2022-12-05T01:13:18.974Z,15.88
2022-12-05T01:15:45.560Z,14.10
2022-12-05T01:18:12.537Z,14.52
2022-12-05T01:20:40.133Z,15.35
2022-12-05T01:23:07.658Z,15.90
2022-12-05T01:25:34.739Z,13.93
2022-12-05T01:28:01.352Z,13.98
2022-12-05T01:30:27.914Z,14.95
2022-12-05T01:32:54.621Z,15.65
2022-12-05T01:35:21.220Z,14.50
2022-12-05T01:37:47.848Z,15.18
2022-12-05T01:40:14.489Z,14.77
2022-12-05T01:42:41.053Z,13.95
2022-12-05T01:45:13.855Z,13.63
2022-12-05T01:47:40.636Z,14.38
2022-12-05T01:50:07.677Z,14.95
2022-12-05T01:52:34.918Z,13.27
2022-12-05T01:55:04.817Z,14.70
2022-12-05T01:57:31.726Z,14.50
2022-12-05T02:00:03.504Z,13.80
2022-12-05T02:02:31.747Z,14.38
2022-12-05T02:05:03.711Z,13.55
2022-12-05T02:07:31.211Z,13.50
2022-12-05T02:09:58.160Z,13.45
2022-12-05T02:12:25.084Z,15.63
2022-12-05T02:15:00.744Z,14.38
2022-12-05T02:17:30.005Z,14.35
2022-12-05T02:20:04.423Z,14.18
2022-12-05T02:22:39.948Z,12.85
2022-12-05T02:25:09.759Z,14.40
2022-12-05T02:27:50.181Z,14.15
2022-12-05T02:30:21.623Z,13.65
2022-12-05T02:32:54.540Z,14.75
2022-12-05T02:35:22.221Z,14.43
2022-12-05T02:37:54.689Z,12.98
2022-12-05T02:40:26.621Z,13.27
2022-12-05T02:43:00.286Z,14.23
2022-12-05T02:45:28.852Z,14.88
2022-12-05T02:47:55.571Z,14.18
2022-12-05T02:50:23.578Z,15.00
2022-12-05T02:52:51.707Z,16.85
2022-12-05T02:55:18.807Z,12.75
2022-12-05T02:57:46.942Z,13.82
2022-12-05T03:00:13.821Z,11.10
2022-12-05T03:02:41.225Z,14.38
2022-12-05T03:05:22.417Z,12.55
2022-12-05T03:07:50.825Z,14.00
2022-12-05T03:10:19.380Z,15.65
2022-12-05T03:12:49.263Z,14.50
2022-12-05T03:15:17.559Z,14.90
2022-12-05T03:17:48.573Z,13.98
2022-12-05T03:20:42.015Z,13.52
2022-12-05T03:23:08.558Z,14.10
2022-12-05T03:25:39.004Z,15.25
2022-12-05T03:28:07.849Z,14.95
2022-12-05T03:30:37.689Z,15.32
2022-12-05T03:33:04.351Z,13.10
2022-12-05T03:35:30.968Z,13.77
2022-12-05T03:38:08.540Z,15.27
2022-12-05T03:40:41.877Z,12.48
2022-12-05T03:43:31.703Z,14.85
2022-12-05T03:45:58.436Z,14.57
2022-12-05T03:48:31.144Z,15.25
2022-12-05T03:50:59.330Z,12.95
2022-12-05T03:53:31.919Z,14.02
2022-12-05T03:56:11.461Z,15.07
2022-12-05T03:58:39.890Z,16.20
2022-12-05T04:01:07.788Z,15.07
2022-12-05T04:03:40.899Z,14.75
2022-12-05T04:06:21.406Z,14.75
2022-12-05T04:08:50.801Z,12.65
2022-12-05T04:11:20.650Z,14.27
2022-12-05T04:13:48.654Z,15.35
2022-12-05T04:16:36.225Z,14.10
2022-12-05T04:19:08.404Z,15.68
2022-12-05T04:21:40.765Z,14.32
2022-12-05T04:24:22.261Z,14.45
2022-12-05T04:26:51.660Z,13.10
2022-12-05T04:29:22.911Z,13.98
2022-12-05T04:31:52.481Z,15.43
2022-12-05T04:34:19.685Z,15.80
2022-12-05T04:36:56.752Z,15.00
2022-12-05T04:39:37.166Z,14.05
2022-12-05T04:42:08.993Z,18.08
2022-12-05T04:44:40.700Z,17.40
2022-12-05T04:47:08.753Z,16.42
2022-12-05T04:49:36.113Z,14.25
2022-12-05T04:52:04.640Z,14.57
2022-12-05T04:54:51.493Z,16.05
2022-12-05T04:57:22.277Z,18.48
2022-12-05T04:59:49.027Z,14.05
2022-12-05T05:02:17.217Z,14.40
2022-12-05T05:04:51.291Z,15.25
2022-12-05T05:07:18.520Z,15.18
2022-12-05T05:09:45.156Z,14.18
2022-12-05T05:12:18.613Z,15.43
2022-12-05T05:14:45.816Z,18.00
2022-12-05T05:17:12.338Z,16.38
2022-12-05T05:19:39.173Z,14.05
2022-12-05T05:22:05.864Z,14.98
2022-12-05T05:24:32.407Z,15.18
2022-12-05T05:26:58.930Z,15.57
2022-12-05T05:29:25.704Z,13.63
2022-12-05T05:31:52.288Z,15.25
2022-12-05T05:34:18.844Z,13.20
2022-12-05T05:36:45.586Z,15.85
2022-12-05T05:39:13.631Z,17.75
2022-12-05T05:41:40.343Z,16.13
2022-12-05T05:44:07.009Z,17.45
2022-12-05T05:46:35.156Z,15.68
2022-12-05T05:49:01.856Z,21.20
2022-12-05T05:51:29.609Z,18.42
2022-12-05T05:53:57.504Z,19.20
2022-12-05T05:56:24.172Z,25.75
2022-12-05T05:59:01.022Z,19.35
2022-12-05T06:01:28.583Z,21.27
2022-12-05T06:03:55.374Z,22.50
2022-12-05T06:06:22.443Z,20.30
2022-12-05T06:08:49.152Z,17.85
2022-12-05T06:11:25.418Z,21.90
2022-12-05T06:13:56.493Z,16.50
2022-12-05T06:16:23.243Z,14.57
2022-12-05T06:18:52.428Z,16.90
2022-12-05T06:21:19.528Z,15.15
2022-12-05T06:23:46.165Z,44.65
2022-12-05T06:26:14.300Z,64.07
2022-12-05T06:28:41.750Z,26.15
2022-12-05T06:31:12.613Z,29.75
2022-12-05T06:33:39.407Z,26.45
2022-12-05T06:36:07.446Z,21.42
2022-12-05T06:38:37.892Z,21.75
2022-12-05T06:41:07.700Z,31.90
2022-12-05T06:43:34.336Z,45.47
2022-12-05T06:46:04.856Z,45.00
2022-12-05T06:48:31.487Z,25.45
2022-12-05T06:50:58.027Z,26.65
2022-12-05T06:53:24.652Z,23.77
2022-12-05T06:55:57.945Z,22.27
2022-12-05T06:58:25.014Z,45.08
2022-12-05T07:01:18.313Z,20.55
2022-12-05T07:03:45.074Z,30.63
2022-12-05T07:06:11.759Z,23.23
2022-12-05T07:08:38.670Z,35.22
2022-12-05T07:11:05.373Z,31.48
2022-12-05T07:13:31.984Z,29.13
2022-12-05T07:16:01.374Z,26.52
2022-12-05T07:18:28.277Z,34.15
2022-12-05T07:21:14.753Z,25.13
2022-12-05T07:23:42.897Z,24.02
2022-12-05T07:26:10.926Z,26.17
2022-12-05T07:28:37.567Z,21.58
2022-12-05T07:31:05.499Z,19.70
2022-12-05T07:33:32.050Z,18.27
2022-12-05T07:35:59.836Z,16.52
2022-12-05T07:38:26.437Z,21.40
2022-12-05T07:40:53.000Z,19.70
2022-12-05T07:43:19.711Z,24.17
2022-12-05T07:45:46.333Z,18.95
2022-12-05T07:48:17.037Z,17.48
2022-12-05T07:50:45.012Z,23.20
2022-12-05T07:53:11.673Z,18.70
2022-12-05T07:55:38.548Z,17.48
2022-12-05T07:58:05.423Z,20.77
2022-12-05T08:00:32.064Z,27.10
2022-12-05T08:02:58.840Z,21.40
2022-12-05T08:05:25.470Z,20.60
2022-12-05T08:07:52.190Z,30.92
2022-12-05T08:10:18.843Z,29.50
2022-12-05T08:12:45.405Z,18.67
2022-12-05T08:15:12.017Z,26.30
2022-12-05T08:17:38.547Z,21.75
2022-12-05T08:20:05.511Z,19.10
2022-12-05T08:22:32.184Z,23.05
2022-12-05T08:24:58.709Z,20.20
2022-12-05T08:27:25.282Z,22.73
2022-12-05T08:29:53.686Z,22.33
2022-12-05T08:32:20.479Z,26.27
2022-12-05T08:34:47.407Z,21.50
2022-12-05T08:37:14.348Z,19.13
2022-12-05T08:39:40.977Z,27.45
2022-12-05T08:42:07.566Z,24.55
2022-12-05T08:44:34.202Z,20.50
2022-12-05T08:47:00.764Z,19.58
2022-12-05T08:49:28.253Z,23.13
2022-12-05T08:51:54.921Z,29.92
2022-12-05T08:54:21.459Z,23.33
2022-12-05T08:56:50.482Z,20.00
2022-12-05T08:59:17.369Z,22.70
2022-12-05T09:01:44.169Z,23.08
2022-12-05T09:04:11.772Z,26.38
2022-12-05T09:06:39.743Z,17.70
2022-12-05T09:09:07.887Z,25.58
2022-12-05T09:11:35.804Z,25.40
2022-12-05T09:14:02.713Z,20.27
2022-12-05T09:16:37.006Z,27.90
2022-12-05T09:19:04.088Z,23.05
2022-12-05T09:21:31.414Z,25.20
2022-12-05T09:23:58.735Z,23.95
2022-12-05T09:26:26.261Z,26.65
2022-12-05T09:28:53.353Z,29.35
2022-12-05T09:31:21.398Z,35.88
2022-12-05T09:33:48.936Z,28.70
2022-12-05T09:36:17.020Z,33.60
2022-12-05T09:38:43.930Z,24.67
2022-12-05T09:41:45.629Z,60.70
2022-12-05T09:44:19.580Z,25.27
2022-12-05T09:46:52.708Z,33.75
2022-12-05T09:49:19.470Z,48.92
2022-12-05T09:51:54.978Z,28.95
2022-12-05T09:54:22.160Z,43.45
2022-12-05T09:56:50.449Z,47.15
2022-12-05T09:59:17.981Z,20.52
2022-12-05T10:01:50.492Z,47.72
2022-12-05T10:04:31.094Z,27.88
2022-12-05T10:06:58.071Z,25.33
2022-12-05T10:09:25.034Z,29.42
2022-12-05T10:11:57.793Z,35.20
2022-12-05T10:14:24.489Z,47.28
2022-12-05T10:16:55.055Z,29.70
2022-12-05T10:19:29.051Z,53.72
2022-12-05T10:21:59.090Z,30.73
2022-12-05T10:24:34.974Z,34.88
2022-12-05T10:27:04.444Z,32.65
2022-12-05T10:29:36.422Z,40.88
2022-12-05T10:32:26.343Z,39.50
2022-12-05T10:34:54.850Z,29.45
2022-12-05T10:37:22.653Z,43.05
2022-12-05T10:39:50.572Z,37.38
2022-12-05T10:42:29.172Z,23.27
2022-12-05T10:44:58.084Z,36.75
2022-12-05T10:47:25.225Z,48.60
2022-12-05T10:49:52.412Z,49.05
2022-12-05T10:52:19.201Z,32.30
2022-12-05T10:54:51.521Z,42.78
2022-12-05T10:57:22.608Z,24.58
2022-12-05T10:59:49.242Z,30.02
2022-12-05T11:02:23.589Z,22.92
2022-12-05T11:04:50.559Z,33.58
2022-12-05T11:07:24.752Z,32.40
2022-12-05T11:09:51.965Z,30.42
2022-12-05T11:12:37.949Z,24.50
2022-12-05T11:15:07.684Z,23.55
2022-12-05T11:17:35.735Z,25.42
2022-12-05T11:20:03.685Z,29.50
2022-12-05T11:22:32.804Z,29.08
2022-12-05T11:24:59.668Z,25.42
2022-12-05T11:27:30.769Z,26.33
2022-12-05T11:29:59.207Z,20.80
2022-12-05T11:32:28.228Z,20.35
2022-12-05T11:35:09.211Z,25.23
2022-12-05T11:37:40.350Z,30.88
2022-12-05T11:40:14.317Z,20.33
2022-12-05T11:43:03.415Z,23.98
2022-12-05T11:45:44.530Z,22.27
2022-12-05T11:48:14.284Z,22.65
2022-12-05T11:50:45.373Z,26.77
2022-12-05T11:53:17.705Z,22.88
2022-12-05T11:55:51.534Z,25.63
2022-12-05T11:58:32.412Z,20.80
2022-12-05T12:00:59.104Z,26.35
2022-12-05T12:03:39.689Z,18.20
2022-12-05T12:06:20.682Z,21.33
2022-12-05T12:09:01.161Z,20.20
2022-12-05T12:11:28.437Z,18.05
2022-12-05T12:13:55.296Z,21.70
2022-12-05T12:16:35.806Z,22.80
2022-12-05T12:19:02.403Z,22.30
2022-12-05T12:21:38.588Z,22.67
2022-12-05T12:24:11.540Z,23.27
2022-12-05T12:26:53.420Z,24.48
2022-12-05T12:29:28.775Z,24.50
2022-12-05T12:32:04.314Z,23.10
2022-12-05T12:34:46.622Z,23.85
2022-12-05T12:37:27.177Z,27.33
2022-12-05T12:40:07.709Z,33.35
2022-12-05T12:42:41.275Z,27.00
2022-12-05T12:45:21.389Z,42.13
2022-12-05T12:47:55.401Z,21.48
2022-12-05T12:50:24.236Z,21.58
2022-12-05T12:52:56.491Z,20.45
2022-12-05T12:55:45.204Z,23.27
2022-12-05T12:58:25.611Z,22.85
2022-12-05T13:00:55.282Z,22.83
2022-12-05T13:03:24.979Z,27.05
2022-12-05T13:05:59.394Z,30.77
2022-12-05T13:08:32.724Z,32.75
2022-12-05T13:10:59.940Z,36.60
2022-12-05T13:13:33.967Z,36.72
2022-12-05T13:16:01.992Z,32.70
2022-12-05T13:18:28.703Z,38.40
2022-12-05T13:21:00.000Z,30.35
2022-12-05T13:23:31.925Z,61.88
2022-12-05T13:25:59.841Z,35.10
2022-12-05T13:28:32.543Z,43.28
2022-12-05T13:31:07.489Z,66.47
2022-12-05T13:33:43.194Z,44.97
2022-12-05T13:36:23.691Z,35.88
2022-12-05T13:39:09.862Z,57.28
2022-12-05T13:41:54.756Z,57.35
2022-12-05T13:44:27.933Z,100.50
2022-12-05T13:46:54.651Z,72.45
2022-12-05T13:49:29.349Z,87.53
2022-12-05T13:52:04.554Z,44.42
2022-12-05T13:54:33.067Z,43.35
2022-12-05T13:57:05.230Z,94.97
2022-12-05T13:59:45.679Z,69.10
2022-12-05T14:02:27.331Z,70.35
2022-12-05T14:04:54.337Z,34.53
2022-12-05T14:07:41.228Z,27.52
2022-12-05T14:10:08.914Z,37.17
2022-12-05T14:12:49.531Z,43.95
2022-12-05T14:15:30.265Z,49.42
2022-12-05T14:18:00.004Z,44.75
2022-12-05T14:20:45.787Z,52.20
2022-12-05T14:23:27.353Z,51.08
2022-12-05T14:26:14.301Z,42.08
2022-12-05T14:28:46.803Z,48.35
2022-12-05T14:31:22.211Z,52.50
2022-12-05T14:34:02.851Z,42.38
2022-12-05T14:36:31.609Z,52.88
2022-12-05T14:38:58.287Z,55.75
2022-12-05T14:41:27.422Z,68.35
2022-12-05T14:43:55.663Z,44.28
2022-12-05T14:46:32.722Z,72.30
2022-12-05T14:49:19.435Z,50.30
2022-12-05T14:51:55.961Z,79.57
2022-12-05T14:54:23.528Z,75.05
2022-12-05T14:56:52.602Z,55.72
2022-12-05T14:59:45.483Z,87.10
2022-12-05T15:02:24.659Z,58.05
2022-12-05T15:04:53.834Z,32.65
2022-12-05T15:07:23.083Z,52.53
2022-12-05T15:10:04.089Z,39.53
2022-12-05T15:12:38.996Z,39.47
2022-12-05T15:15:20.222Z,34.55
2022-12-05T15:17:49.224Z,30.70
2022-12-05T15:20:29.906Z,35.50
2022-12-05T15:22:56.570Z,41.85
2022-12-05T15:25:33.120Z,41.08
2022-12-05T15:28:05.185Z,49.00
2022-12-05T15:30:34.173Z,51.13
2022-12-05T15:33:01.333Z,38.97
2022-12-05T15:35:30.739Z,41.42
2022-12-05T15:38:04.455Z,52.03
2022-12-05T15:40:37.764Z,37.63
2022-12-05T15:43:24.753Z,67.13
2022-12-05T15:45:51.520Z,45.13
2022-12-05T15:48:22.900Z,52.78
2022-12-05T15:50:51.413Z,37.22
2022-12-05T15:53:20.927Z,53.63
2022-12-05T15:55:55.570Z,50.90
2022-12-05T15:58:22.219Z,43.67
2022-12-05T16:00:50.536Z,46.03
2022-12-05T16:03:20.159Z,56.60
2022-12-05T16:05:54.636Z,41.00
2022-12-05T16:08:21.746Z,51.13
2022-12-05T16:10:48.517Z,49.95
2022-12-05T16:13:16.288Z,48.55
2022-12-05T16:15:52.470Z,36.75
2022-12-05T16:18:25.944Z,42.97
2022-12-05T16:20:52.811Z,46.13
2022-12-05T16:23:37.766Z,39.85
2022-12-05T16:26:18.750Z,47.95
2022-12-05T16:28:56.564Z,35.42
2022-12-05T16:31:23.408Z,36.35
2022-12-05T16:33:59.317Z,32.25
2022-12-05T16:36:26.092Z,32.20
2022-12-05T16:39:00.355Z,34.72
2022-12-05T16:41:34.289Z,33.75
2022-12-05T16:44:01.028Z,33.60
2022-12-05T16:46:41.302Z,34.17
2022-12-05T16:49:19.806Z,34.75
2022-12-05T16:51:53.735Z,45.65
2022-12-05T16:54:20.413Z,39.03
2022-12-05T16:56:47.190Z,40.05
2022-12-05T16:59:24.776Z,52.28
2022-12-05T17:01:51.612Z,46.35
2022-12-05T17:04:18.588Z,50.85
2022-12-05T17:06:45.977Z,64.22
2022-12-05T17:09:13.335Z,54.40
2022-12-05T17:11:41.397Z,50.65
2022-12-05T17:14:11.680Z,56.55
2022-12-05T17:16:38.367Z,56.17
2022-12-05T17:19:05.562Z,60.67
2022-12-05T17:21:33.626Z,57.88
2022-12-05T17:24:00.792Z,58.15
2022-12-05T17:26:27.579Z,92.05
2022-12-05T17:28:54.244Z,86.20
2022-12-05T17:31:22.262Z,67.15
2022-12-05T17:33:49.390Z,65.10
2022-12-05T17:36:16.585Z,58.65
2022-12-05T17:38:43.644Z,47.20
2022-12-05T17:41:15.440Z,47.58
2022-12-05T17:43:42.211Z,81.03
2022-12-05T17:46:09.430Z,52.97
2022-12-05T17:48:35.988Z,56.75
2022-12-05T17:51:04.682Z,61.55
2022-12-05T17:53:31.307Z,75.97
2022-12-05T17:55:57.878Z,59.45
2022-12-05T17:58:25.003Z,90.28
2022-12-05T18:00:52.106Z,57.17
2022-12-05T18:03:19.385Z,65.18
2022-12-05T18:05:46.809Z,66.85
2022-12-05T18:08:13.965Z,57.60
2022-12-05T18:10:41.152Z,51.88
2022-12-05T18:13:08.257Z,46.05
2022-12-05T18:15:40.937Z,64.78
2022-12-05T18:18:13.611Z,61.80
2022-12-05T18:20:40.305Z,72.13
2022-12-05T18:23:06.940Z,70.00
2022-12-05T18:25:33.675Z,86.82
2022-12-05T18:28:00.291Z,82.20
2022-12-05T18:30:26.942Z,82.30
2022-12-05T18:32:53.737Z,68.40
2022-12-05T18:35:40.001Z,56.30
2022-12-05T18:38:15.686Z,56.25
2022-12-05T18:40:42.278Z,54.33
2022-12-05T18:43:09.017Z,56.03
2022-12-05T18:45:35.793Z,69.72
2022-12-05T18:48:23.505Z,71.32
2022-12-05T18:50:49.142Z,63.67
2022-12-05T18:53:15.735Z,65.88
2022-12-05T18:56:05.144Z,66.95
2022-12-05T18:58:29.413Z,83.20
2022-12-05T19:01:03.098Z,84.90
2022-12-05T19:03:29.845Z,83.82
2022-12-05T19:05:56.458Z,78.47
2022-12-05T19:08:23.167Z,69.93
2022-12-05T19:10:49.875Z,67.07
2022-12-05T19:13:19.852Z,59.63
2022-12-05T19:15:47.155Z,66.85
2022-12-05T19:18:13.891Z,58.92
2022-12-05T19:20:40.514Z,66.88
2022-12-05T19:23:07.084Z,50.53
2022-12-05T19:25:33.774Z,56.42
2022-12-05T19:28:00.463Z,50.65
2022-12-05T19:30:27.053Z,56.13
2022-12-05T19:32:53.747Z,60.35
2022-12-05T19:35:20.582Z,88.85
2022-12-05T19:37:47.146Z,76.40
2022-12-05T19:40:14.044Z,72.45
2022-12-05T19:42:40.610Z,68.22
2022-12-05T19:45:10.331Z,76.55
2022-12-05T19:47:39.185Z,73.93
2022-12-05T19:50:06.121Z,70.50
2022-12-05T19:52:32.748Z,84.72
2022-12-05T19:54:59.470Z,77.88
2022-12-05T19:57:31.075Z,69.97
2022-12-05T19:59:58.410Z,52.85
2022-12-05T20:02:25.647Z,53.53
2022-12-05T20:04:52.437Z,49.72
2022-12-05T20:07:19.342Z,56.60
2022-12-05T20:09:46.518Z,41.97
2022-12-05T20:12:13.113Z,48.63
2022-12-05T20:14:39.855Z,41.97
2022-12-05T20:17:06.723Z,60.40
2022-12-05T20:19:33.431Z,45.83
2022-12-05T20:21:59.986Z,40.20
2022-12-05T20:24:27.157Z,45.08
2022-12-05T20:26:53.767Z,49.72
2022-12-05T20:29:20.530Z,51.58
2022-12-05T20:31:50.018Z,35.65
2022-12-05T20:34:16.606Z,37.75
2022-12-05T20:36:43.408Z,43.38
2022-12-05T20:39:14.659Z,33.13
2022-12-05T20:41:41.483Z,37.58
2022-12-05T20:44:08.710Z,38.28
2022-12-05T20:46:36.982Z,37.28
2022-12-05T20:49:03.735Z,37.00
2022-12-05T20:51:31.715Z,35.10
2022-12-05T20:53:59.438Z,37.20
2022-12-05T20:56:29.985Z,37.65
2022-12-05T20:58:58.286Z,37.05
2022-12-05T21:01:25.922Z,41.90
2022-12-05T21:03:52.969Z,38.70
2022-12-05T21:06:22.417Z,34.28
2022-12-05T21:08:49.135Z,38.08
2022-12-05T21:11:15.683Z,33.45
2022-12-05T21:13:42.430Z,55.92
2022-12-05T21:16:19.568Z,40.25
2022-12-05T21:18:46.881Z,36.08
2022-12-05T21:21:15.071Z,32.33
2022-12-05T21:23:42.781Z,35.95
2022-12-05T21:26:11.243Z,37.70
2022-12-05T21:28:37.806Z,38.60
2022-12-05T21:31:07.611Z,38.13
2022-12-05T21:33:35.525Z,38.63
2022-12-05T21:36:02.701Z,37.80
2022-12-05T21:38:29.454Z,34.30
2022-12-05T21:40:56.526Z,34.75
2022-12-05T21:43:23.089Z,41.58
2022-12-05T21:45:56.212Z,34.00
2022-12-05T21:48:23.524Z,32.42
2022-12-05T21:50:50.629Z,34.40
2022-12-05T21:53:17.938Z,38.20
2022-12-05T21:55:45.048Z,35.95
2022-12-05T21:58:12.380Z,38.78
2022-12-05T22:00:39.744Z,35.55
2022-12-05T22:03:07.103Z,40.70
2022-12-05T22:05:34.655Z,33.10
2022-12-05T22:08:06.680Z,36.13
2022-12-05T22:10:34.449Z,41.60
2022-12-05T22:13:01.020Z,40.63
2022-12-05T22:15:27.624Z,35.38
2022-12-05T22:17:54.328Z,32.75
2022-12-05T22:20:21.065Z,37.97
2022-12-05T22:22:47.753Z,33.30
2022-12-05T22:25:15.208Z,35.50
2022-12-05T22:27:41.879Z,36.60
2022-12-05T22:30:08.779Z,35.80
2022-12-05T22:32:35.711Z,40.58
2022-12-05T22:35:04.247Z,42.83
2022-12-05T22:37:31.467Z,59.83
2022-12-05T22:39:58.575Z,44.47
2022-12-05T22:42:28.306Z,49.28
2022-12-05T22:44:54.962Z,39.30
2022-12-05T22:47:21.650Z,41.03
2022-12-05T22:49:48.192Z,47.25
2022-12-05T22:52:15.433Z,42.05
2022-12-05T22:54:42.046Z,36.65
2022-12-05T22:57:08.679Z,34.53
2022-12-05T22:59:35.355Z,27.95
2022-12-05T23:02:02.034Z,30.48
2022-12-05T23:04:28.725Z,35.05
2022-12-05T23:06:55.469Z,29.75
2022-12-05T23:09:22.227Z,33.08
2022-12-05T23:11:49.674Z,32.22
2022-12-05T23:14:16.225Z,31.45
2022-12-05T23:16:42.942Z,30.63
2022-12-05T23:19:09.776Z,29.88
2022-12-05T23:21:38.829Z,29.52
2022-12-05T23:24:06.806Z,30.48
2022-12-05T23:26:34.842Z,29.52
2022-12-05T23:29:01.716Z,28.83
2022-12-05T23:31:31.567Z,29.10
2022-12-05T23:34:02.941Z,30.65
2022-12-05T23:36:30.391Z,31.90
2022-12-05T23:38:57.304Z,31.33
2022-12-05T23:41:24.293Z,28.88
2022-12-05T23:43:51.384Z,27.98
2022-12-05T23:46:19.660Z,29.52
2022-12-05T23:48:46.739Z,30.60
2022-12-05T23:51:14.719Z,29.23
2022-12-05T23:53:42.353Z,30.92
2022-12-05T23:56:10.627Z,29.63
2022-12-05T23:58:37.853Z,27.85
